Time;durP1;ratioP1;P1;durP2;ratioP2;P2;SDS_P1;SDS_P2;PMS_P1;PMS_P2;Temp;Humidity;BMP_temperature;BMP_pressure;BME280_temperature;BME280_humidity;BME280_pressure;Samples;Min_cycle;Max_cycle;Signal;HPM_P1;HPM_P2
2021/09/12 00:00:08;;;;;;;19.02;11.57;;;;;;;16.66;100.00;99157.56;4194623;84;28527;-86
2021/09/12 00:06:13;;;;;;;19.65;10.68;;;;;;;16.77;100.00;99163.00;4087376;85;28514;-85
2021/09/12 00:12:15;;;;;;;22.05;11.78;;;;;;;16.75;100.00;99161.91;4142600;84;28618;-86
2021/09/12 00:18:16;;;;;;;21.10;11.55;;;;;;;16.86;100.00;99161.39;4119824;85;28467;-87
2021/09/12 00:24:18;;;;;;;22.58;12.35;;;;;;;16.89;100.00;99162.20;4122197;86;28526;-88
2021/09/12 00:30:19;;;;;;;17.57;11.60;;;;;;;16.82;100.00;99155.68;4100276;87;28516;-87
2021/09/12 00:36:21;;;;;;;18.90;11.88;;;;;;;16.61;100.00;99162.16;4100045;87;28531;-87
2021/09/12 00:42:22;;;;;;;17.40;10.65;;;;;;;16.64;100.00;99158.91;4099994;87;28487;-86
2021/09/12 00:48:24;;;;;;;20.23;12.65;;;;;;;16.55;100.00;99158.62;4106330;87;28446;-87
2021/09/12 00:54:27;;;;;;;17.02;10.65;;;;;;;16.72;100.00;99159.21;4113558;86;28489;-86
2021/09/12 01:00:28;;;;;;;17.35;10.50;;;;;;;16.74;100.00;99154.85;4181026;85;28455;-85
2021/09/12 01:06:30;;;;;;;17.67;10.80;;;;;;;16.73;100.00;99155.41;4146695;84;28506;-85
2021/09/12 01:12:35;;;;;;;36.80;20.92;;;;;;;16.81;100.00;99151.34;4154947;84;28546;-90
2021/09/12 01:18:36;;;;;;;19.23;13.15;;;;;;;16.81;100.00;99149.16;4124419;85;28514;-89
2021/09/12 01:24:38;;;;;;;17.98;10.50;;;;;;;16.83;100.00;99147.80;4126585;86;28528;-88
2021/09/12 01:30:39;;;;;;;18.27;10.23;;;;;;;16.75;100.00;99150.25;4126764;86;28478;-89
2021/09/12 01:36:41;;;;;;;17.67;9.78;;;;;;;16.77;100.00;99159.77;4149636;85;28532;-87
2021/09/12 01:42:42;;;;;;;17.25;10.58;;;;;;;17.01;100.00;99156.55;4071224;87;28521;-87
2021/09/12 01:48:46;;;;;;;17.17;10.70;;;;;;;16.74;100.00;99148.06;4061697;87;28532;-89
2021/09/12 01:54:47;;;;;;;18.05;10.60;;;;;;;16.67;100.00;99150.25;4014152;86;28528;-89
2021/09/12 02:00:48;;;;;;;17.15;10.78;;;;;;;16.67;100.00;99152.95;4037253;87;28509;-88
2021/09/12 02:06:50;;;;;;;24.35;13.15;;;;;;;16.58;100.00;99143.15;4051978;87;28502;-89
2021/09/12 02:12:52;;;;;;;20.97;12.75;;;;;;;16.66;100.00;99150.77;4073747;85;28498;-88
2021/09/12 02:18:53;;;;;;;20.37;11.68;;;;;;;16.75;100.00;99152.41;4140147;85;28526;-88
2021/09/12 02:24:55;;;;;;;20.48;13.28;;;;;;;16.72;100.00;99148.88;4073805;86;28503;-88
2021/09/12 02:30:56;;;;;;;24.12;13.75;;;;;;;16.56;100.00;99143.44;4055750;88;28467;-88
2021/09/12 02:36:57;;;;;;;22.50;12.98;;;;;;;16.56;100.00;99145.33;4056270;87;28502;-88
2021/09/12 02:42:58;;;;;;;20.23;12.13;;;;;;;16.63;100.00;99152.67;4056200;88;28482;-89
2021/09/12 02:49:00;;;;;;;19.32;12.43;;;;;;;16.60;100.00;99149.13;4056038;88;28527;-87
2021/09/12 02:55:04;;;;;;;21.37;12.15;;;;;;;16.65;100.00;99146.96;4056172;87;28515;-89
2021/09/12 03:01:05;;;;;;;19.57;12.10;;;;;;;16.53;100.00;99156.72;4057882;87;28487;-89
2021/09/12 03:07:06;;;;;;;21.00;11.50;;;;;;;16.44;100.00;99154.53;4082761;86;28467;-89
2021/09/12 03:13:07;;;;;;;21.73;11.93;;;;;;;16.48;100.00;99157.53;4062769;87;28526;-87
2021/09/12 03:19:09;;;;;;;20.40;11.73;;;;;;;16.56;100.00;99166.51;3973414;89;28495;-86
2021/09/12 03:25:10;;;;;;;19.50;11.28;;;;;;;16.47;100.00;99160.49;4041097;87;28490;-86
2021/09/12 03:31:12;;;;;;;16.57;10.88;;;;;;;16.47;100.00;99171.35;3974256;89;28516;-88
2021/09/12 03:37:13;;;;;;;21.15;11.38;;;;;;;16.48;100.00;99171.63;4042517;88;28508;-87
2021/09/12 03:43:14;;;;;;;17.98;11.20;;;;;;;16.43;100.00;99166.47;3974500;89;28496;-88
2021/09/12 03:49:16;;;;;;;16.82;10.03;;;;;;;16.44;100.00;99165.91;4042192;88;28482;-87
2021/09/12 03:55:17;;;;;;;16.23;9.90;;;;;;;16.49;100.00;99170.53;3975311;89;28491;-86
2021/09/12 04:01:18;;;;;;;18.90;9.93;;;;;;;16.43;100.00;99170.53;4042936;88;28470;-87
2021/09/12 04:07:20;;;;;;;17.00;9.65;;;;;;;16.39;100.00;99165.34;3975954;90;28503;-88
2021/09/12 04:13:21;;;;;;;16.82;10.10;;;;;;;16.35;100.00;99165.62;4045952;87;28499;-89
2021/09/12 04:19:22;;;;;;;15.48;9.10;;;;;;;16.33;100.00;99167.79;4141148;86;28496;-91
2021/09/12 04:25:23;;;;;;;15.18;9.15;;;;;;;16.47;100.00;99169.47;4141549;86;28476;-89
2021/09/12 04:31:25;;;;;;;13.03;8.05;;;;;;;16.34;100.00;99169.95;4141458;86;28492;-88
2021/09/12 04:37:26;;;;;;;18.20;9.35;;;;;;;16.33;100.00;99169.67;4140658;86;28525;-89
2021/09/12 04:43:28;;;;;;;14.63;8.95;;;;;;;16.43;100.00;99175.97;4140754;86;28487;-90
2021/09/12 04:49:29;;;;;;;14.23;8.95;;;;;;;16.42;100.00;99175.69;4141732;86;28480;-92
2021/09/12 04:55:30;;;;;;;14.18;8.63;;;;;;;16.63;100.00;99170.84;4141680;86;28477;-89
2021/09/12 05:01:32;;;;;;;13.70;8.93;;;;;;;16.94;100.00;99177.16;4141439;86;28472;-87
2021/09/12 05:07:34;;;;;;;15.78;9.05;;;;;;;17.00;100.00;99174.73;4140549;86;28499;-87
2021/09/12 05:13:36;;;;;;;13.32;8.70;;;;;;;17.24;100.00;99174.75;4135857;85;28519;-86
2021/09/12 05:19:38;;;;;;;16.30;8.93;;;;;;;17.35;100.00;99168.22;4032428;87;28477;-87
2021/09/12 05:25:39;;;;;;;15.13;8.35;;;;;;;17.54;100.00;99172.53;3973346;88;28535;-88
2021/09/12 05:31:40;;;;;;;13.10;8.18;;;;;;;17.70;100.00;99177.95;4041040;86;28505;-88
2021/09/12 05:37:44;;;;;;;14.00;7.58;;;;;;;17.90;100.00;99179.80;3973903;89;28483;-90
2021/09/12 05:43:45;;;;;;;13.53;8.38;;;;;;;18.02;100.00;99186.86;4041446;88;28481;-91
2021/09/12 05:49:47;;;;;;;11.75;7.53;;;;;;;18.24;100.00;99185.99;3974162;89;28499;-87
2021/09/12 05:55:48;;;;;;;12.25;8.05;;;;;;;18.42;100.00;99178.83;4040917;87;28469;-87
2021/09/12 06:01:49;;;;;;;12.07;7.42;;;;;;;18.57;100.00;99183.39;3973890;90;28467;-89
2021/09/12 06:07:54;;;;;;;11.18;7.08;;;;;;;18.72;100.00;99180.56;4040489;88;28486;-88
2021/09/12 06:13:55;;;;;;;14.90;7.55;;;;;;;18.97;100.00;99178.78;3958926;88;28525;-88
2021/09/12 06:19:56;;;;;;;11.45;7.15;;;;;;;19.15;100.00;99180.56;4031978;88;28472;-88
2021/09/12 06:25:58;;;;;;;11.83;7.05;;;;;;;19.31;100.00;99173.90;4010264;89;28476;-91
2021/09/12 06:31:59;;;;;;;13.72;7.78;;;;;;;19.43;100.00;99191.78;4106366;87;28508;-89
2021/09/12 06:38:01;;;;;;;12.35;7.97;;;;;;;19.42;100.00;99193.72;4106651;87;28478;-90
2021/09/12 06:44:03;;;;;;;12.15;8.33;;;;;;;19.64;100.00;99191.06;4107055;87;28485;-88
2021/09/12 06:50:05;;;;;;;13.75;8.58;;;;;;;19.67;100.00;99186.92;4106423;87;28474;-88
2021/09/12 06:56:07;;;;;;;13.78;8.95;;;;;;;19.78;100.00;99189.27;4106373;86;28486;-89
2021/09/12 07:02:11;;;;;;;12.25;8.30;;;;;;;20.13;100.00;99187.00;4106489;86;28542;-88
2021/09/12 07:08:12;;;;;;;13.35;7.87;;;;;;;20.36;100.00;99179.90;4106233;87;28517;-88
2021/09/12 07:14:13;;;;;;;15.03;8.45;;;;;;;20.64;100.00;99180.08;4106041;86;28538;-89
2021/09/12 07:20:18;;;;;;;12.10;8.45;;;;;;;20.78;100.00;99191.63;4089281;85;28537;-87
2021/09/12 07:26:19;;;;;;;14.25;8.98;;;;;;;20.88;100.00;99195.61;4154557;86;28494;-87
2021/09/12 07:32:20;;;;;;;12.95;9.68;;;;;;;21.10;100.00;99197.73;4213784;84;28477;-83
2021/09/12 07:38:22;;;;;;;14.33;8.48;;;;;;;21.31;100.00;99202.30;4213085;84;28524;-82
2021/09/12 07:44:23;;;;;;;15.32;8.90;;;;;;;21.61;100.00;99214.95;4171291;84;28475;-83
2021/09/12 07:50:25;;;;;;;14.20;8.90;;;;;;;21.70;99.66;99207.70;4141634;84;28502;-82
2021/09/12 07:56:26;;;;;;;13.48;9.03;;;;;;;22.04;98.07;99215.30;4059557;87;28518;-81
2021/09/12 08:02:27;;;;;;;16.05;9.53;;;;;;;22.27;94.41;99226.59;4129710;86;28521;-82
2021/09/12 08:08:29;;;;;;;14.83;9.88;;;;;;;22.33;97.64;99216.89;4058656;87;28484;-84
2021/09/12 08:14:30;;;;;;;15.05;9.83;;;;;;;22.17;91.96;99211.74;4122560;85;28487;-85
2021/09/12 08:20:32;;;;;;;16.00;10.13;;;;;;;22.40;94.10;99210.45;3969554;88;28551;-84
2021/09/12 08:26:33;;;;;;;17.35;9.68;;;;;;;22.62;94.89;99205.64;4000461;89;28511;-82
2021/09/12 08:32:36;;;;;;;15.60;9.88;;;;;;;22.78;94.04;99206.66;3968763;88;28490;-83
2021/09/12 08:38:38;;;;;;;12.05;9.33;;;;;;;23.09;93.76;99210.88;4050388;85;28494;-83
2021/09/12 08:44:41;;;;;;;12.88;8.38;;;;;;;22.98;90.46;99208.13;4061915;86;28488;-80
2021/09/12 08:50:45;;;;;;;11.75;8.90;;;;;;;23.33;89.02;99213.09;4041148;87;28528;-77
2021/09/12 08:56:46;;;;;;;12.50;9.83;;;;;;;23.64;90.31;99203.50;4020456;88;28497;-84
2021/09/12 09:02:49;;;;;;;12.80;9.25;;;;;;;23.54;87.47;99202.40;3969492;89;28597;-81
2021/09/12 09:09:00;;;;;;;16.77;9.88;;;;;;;23.78;90.25;99200.67;4028620;88;28511;-82
2021/09/12 09:15:22;;;;;;;13.60;8.95;;;;;;;23.89;89.86;99190.20;4031609;87;28540;-82
2021/09/12 09:21:31;;;;;;;13.83;9.35;;;;;;;24.08;86.49;99191.92;4037739;87;28471;-84
2021/09/12 09:27:56;;;;;;;12.33;9.28;;;;;;;24.29;85.14;99191.34;4047282;87;28485;-83
2021/09/12 09:34:19;;;;;;;14.13;8.90;;;;;;;24.22;85.83;99191.26;4044023;86;28484;-81
2021/09/12 09:40:21;;;;;;;12.95;8.63;;;;;;;24.83;83.21;99188.38;3977230;89;28527;-82
2021/09/12 09:46:39;;;;;;;11.97;9.08;;;;;;;24.86;83.63;99186.34;4044602;87;28501;-83
2021/09/12 09:52:46;;;;;;;13.08;8.85;;;;;;;24.82;84.37;99184.01;4037897;88;28496;-81
2021/09/12 09:58:47;;;;;;;11.95;8.88;;;;;;;25.04;82.23;99178.09;4045542;87;28503;-83
2021/09/12 10:04:50;;;;;;;12.53;9.05;;;;;;;25.06;82.63;99174.44;4037008;88;28519;-83
2021/09/12 10:10:52;;;;;;;12.93;8.98;;;;;;;25.21;82.51;99169.00;4044962;87;28505;-81
2021/09/12 10:16:54;;;;;;;13.45;9.13;;;;;;;25.24;82.74;99159.30;4044724;87;28480;-82
2021/09/12 10:23:06;;;;;;;11.18;7.78;;;;;;;25.30;80.66;99156.04;4069212;87;28481;-81
2021/09/12 10:29:51;;;;;;;11.15;7.85;;;;;;;25.43;76.86;99156.98;4125833;85;28502;-81
2021/09/12 10:36:01;;;;;;;10.98;8.23;;;;;;;25.45;75.34;99155.27;4126230;85;28481;-81
2021/09/12 10:42:16;;;;;;;11.53;7.97;;;;;;;25.63;76.09;99153.31;4125863;85;28492;-83
2021/09/12 10:48:20;;;;;;;10.18;7.80;;;;;;;25.85;76.03;99151.44;4126115;86;28482;-84
2021/09/12 10:54:22;;;;;;;10.72;8.28;;;;;;;26.00;75.98;99141.80;4125972;86;28496;-81
2021/09/12 11:00:24;;;;;;;9.88;7.78;;;;;;;26.10;76.87;99142.80;4068501;87;28536;-81
2021/09/12 11:06:30;;;;;;;8.00;6.92;;;;;;;26.34;75.20;99135.86;4125315;86;28572;-83
2021/09/12 11:12:32;;;;;;;10.43;7.00;;;;;;;26.25;70.45;99129.05;4125844;86;28482;-83
2021/09/12 11:18:59;;;;;;;9.93;7.20;;;;;;;26.64;69.73;99122.02;4129051;84;28486;-82
2021/09/12 11:25:04;;;;;;;8.35;6.55;;;;;;;26.85;70.14;99121.19;4130849;86;28519;-84
2021/09/12 11:31:05;;;;;;;7.78;5.90;;;;;;;27.20;68.39;99105.67;4131290;85;28490;-85
2021/09/12 11:37:13;;;;;;;5.87;5.28;;;;;;;26.90;61.96;99105.82;4131196;86;28471;-82
2021/09/12 11:43:16;;;;;;;7.35;5.08;;;;;;;27.30;61.22;99098.92;4045853;87;28465;-82
2021/09/12 11:49:18;;;;;;;6.15;5.20;;;;;;;27.40;60.09;99099.05;3978263;90;28522;-82
2021/09/12 11:55:23;;;;;;;8.25;6.42;;;;;;;27.53;58.77;99085.47;4045441;87;28514;-81
2021/09/12 12:01:24;;;;;;;9.55;6.92;;;;;;;27.44;57.50;99079.84;3978197;89;28480;-82
2021/09/12 12:07:38;;;;;;;8.75;5.50;;;;;;;27.73;56.32;99071.93;4045500;87;28511;-81
2021/09/12 12:13:40;;;;;;;7.80;5.87;;;;;;;27.92;56.80;99065.02;3978397;89;28549;-82
2021/09/12 12:19:41;;;;;;;8.88;6.90;;;;;;;27.95;55.02;99058.78;4062956;87;28507;-84
2021/09/12 12:25:44;;;;;;;11.38;6.45;;;;;;;27.65;56.24;99051.58;4125997;86;28490;-83
2021/09/12 12:31:45;;;;;;;8.10;6.45;;;;;;;27.45;53.47;99042.24;4126070;85;28474;-82
2021/09/12 12:37:47;;;;;;;8.45;6.15;;;;;;;27.46;54.53;99036.95;4126314;86;28483;-81
2021/09/12 12:43:49;;;;;;;9.05;6.40;;;;;;;27.37;55.31;99039.02;4069422;87;28469;-82
2021/09/12 12:49:58;;;;;;;6.92;4.95;;;;;;;27.30;55.63;99036.83;4125951;86;28528;-82
2021/09/12 12:56:03;;;;;;;7.50;5.42;;;;;;;27.33;53.19;99021.52;4126972;85;28458;-82
2021/09/12 13:02:05;;;;;;;6.03;4.87;;;;;;;27.13;54.46;99028.98;4068807;87;28523;-81
2021/09/12 13:08:06;;;;;;;5.65;4.75;;;;;;;27.37;54.29;99027.38;4125392;86;28470;-82
2021/09/12 13:14:08;;;;;;;6.28;5.22;;;;;;;27.46;53.10;99025.91;4126019;85;28940;-85
2021/09/12 13:20:10;;;;;;;6.28;5.60;;;;;;;27.52;53.49;99020.95;4049948;86;28476;-82
2021/09/12 13:26:12;;;;;;;6.62;5.90;;;;;;;27.55;55.36;99028.01;4038747;88;28482;-83
2021/09/12 13:32:13;;;;;;;9.35;6.47;;;;;;;27.53;56.96;99021.97;4041690;88;28584;-82
2021/09/12 13:38:14;;;;;;;9.33;6.17;;;;;;;27.21;57.95;99025.87;4001415;88;28456;-82
2021/09/12 13:44:16;;;;;;;8.45;5.53;;;;;;;27.26;57.33;99017.95;3968732;89;28537;-81
2021/09/12 13:50:19;;;;;;;7.15;5.10;;;;;;;26.92;54.91;99013.09;4035322;87;28609;-81
2021/09/12 13:56:20;;;;;;;9.00;5.67;;;;;;;27.22;54.02;99015.07;3968243;90;28527;-80
2021/09/12 14:02:21;;;;;;;6.30;5.40;;;;;;;27.34;54.58;99011.52;4037375;87;28508;-82
2021/09/12 14:08:23;;;;;;;6.80;5.03;;;;;;;27.24;55.51;99003.70;3973920;88;28477;-80
2021/09/12 14:14:25;;;;;;;8.08;5.12;;;;;;;27.13;54.28;99004.74;4033403;87;28555;-83
2021/09/12 14:20:26;;;;;;;7.33;5.33;;;;;;;27.27;54.55;99002.44;4044208;86;28481;-83
2021/09/12 14:26:27;;;;;;;5.33;4.80;;;;;;;27.20;54.94;99007.72;4040185;86;28566;-84
2021/09/12 14:32:28;;;;;;;8.30;5.80;;;;;;;27.19;56.10;99010.84;4124970;85;28441;-85
2021/09/12 14:38:29;;;;;;;6.55;5.10;;;;;;;27.18;56.49;99004.50;4126962;85;28489;-82
2021/09/12 14:44:31;;;;;;;5.55;4.70;;;;;;;27.22;56.60;98992.99;4092982;87;28454;-86
2021/09/12 14:50:32;;;;;;;6.33;4.55;;;;;;;27.41;56.23;99000.72;4046453;87;28477;-81
2021/09/12 14:56:35;;;;;;;4.67;4.00;;;;;;;27.20;57.33;99007.72;4047250;87;28497;-83
2021/09/12 15:02:41;;;;;;;5.37;3.98;;;;;;;27.41;56.42;99005.42;4045631;87;28493;-83
2021/09/12 15:08:43;;;;;;;5.40;4.08;;;;;;;27.32;55.86;99000.59;4052508;87;28477;-84
2021/09/12 15:14:47;;;;;;;5.90;4.28;;;;;;;27.26;53.86;98998.63;4045663;87;28476;-83
2021/09/12 15:20:47;;;;;;;5.75;4.03;;;;;;;27.39;54.10;98994.74;4045022;86;28598;-83
2021/09/12 15:26:48;;;;;;;6.28;4.92;;;;;;;27.07;55.81;98983.44;4051921;87;28509;-83
2021/09/12 15:32:49;;;;;;;6.22;5.30;;;;;;;26.94;58.38;98984.59;4042954;87;28471;-82
2021/09/12 15:38:51;;;;;;;6.83;4.92;;;;;;;26.44;62.97;98991.32;4003765;88;28562;-82
2021/09/12 15:44:53;;;;;;;6.55;4.85;;;;;;;26.62;59.62;98990.59;4043325;87;28527;-83
2021/09/12 15:50:54;;;;;;;6.85;5.35;;;;;;;26.25;63.22;98990.45;4180614;85;28470;-82
2021/09/12 15:56:55;;;;;;;7.97;6.12;;;;;;;26.39;64.24;98990.95;4117392;86;28486;-79
2021/09/12 16:02:57;;;;;;;8.90;6.83;;;;;;;26.25;66.71;98991.28;4133378;85;28510;-81
2021/09/12 16:08:58;;;;;;;9.95;6.70;;;;;;;26.22;66.88;98988.39;4117148;86;28496;-82
2021/09/12 16:15:00;;;;;;;7.40;6.15;;;;;;;25.65;71.71;98994.13;4121863;85;28517;-82
2021/09/12 16:21:01;;;;;;;11.38;6.62;;;;;;;25.87;70.84;99002.62;4061605;85;28492;-84
2021/09/12 16:27:02;;;;;;;8.73;6.58;;;;;;;25.28;78.09;99005.63;4041876;87;28478;-82
2021/09/12 16:33:04;;;;;;;9.15;6.30;;;;;;;25.48;75.17;99007.39;4022439;87;28471;-82
2021/09/12 16:39:06;;;;;;;8.48;6.30;;;;;;;25.43;75.91;99008.94;4038229;87;28493;-82
2021/09/12 16:51:14;;;;;;;12.40;8.00;;;;;;;24.92;83.56;99001.38;4113462;85;28512;-82
2021/09/12 16:57:15;;;;;;;8.85;7.28;;;;;;;25.05;79.74;98998.19;4047536;86;28472;-84
2021/09/12 17:03:17;;;;;;;9.33;5.92;;;;;;;24.86;83.00;99002.71;4127973;86;28492;-84
2021/09/12 17:09:20;;;;;;;10.53;7.55;;;;;;;24.55;88.90;99000.97;4127903;86;28481;-83
2021/09/12 17:15:21;;;;;;;8.05;6.87;;;;;;;24.61;86.90;99005.14;4104180;86;28467;-83
2021/09/12 17:21:24;;;;;;;11.83;8.00;;;;;;;24.15;95.22;99004.70;4061631;87;28551;-82
2021/09/12 17:27:26;;;;;;;13.35;8.70;;;;;;;24.32;93.34;99008.83;4144533;85;28471;-84
2021/09/12 17:33:28;;;;;;;10.28;6.42;;;;;;;24.12;98.33;99007.55;4122735;85;28499;-87
2021/09/12 17:39:29;;;;;;;10.55;6.70;;;;;;;24.17;99.53;99007.95;4125349;85;28460;-89
2021/09/12 17:45:30;;;;;;;8.53;6.87;;;;;;;23.87;100.00;99015.39;4142861;85;28514;-89
2021/09/12 17:51:31;;;;;;;8.98;7.17;;;;;;;23.46;100.00;99016.05;4135210;85;28528;-88
2021/09/12 17:57:33;;;;;;;8.38;7.28;;;;;;;23.41;100.00;99018.92;4141429;85;28461;-90
2021/09/12 18:03:34;;;;;;;9.90;6.53;;;;;;;23.12;100.00;99021.62;4141953;85;28446;-89
2021/09/12 18:09:36;;;;;;;15.00;10.82;;;;;;;23.07;100.00;99019.00;4143358;85;28464;-89
2021/09/12 18:15:37;;;;;;;10.48;8.35;;;;;;;23.14;100.00;99018.55;4163792;85;28493;-87
2021/09/12 18:21:38;;;;;;;11.78;7.87;;;;;;;22.94;100.00;99020.70;4086745;86;28488;-86
2021/09/12 18:27:40;;;;;;;10.82;7.65;;;;;;;22.80;100.00;99022.16;4140915;86;28487;-88
2021/09/12 18:33:41;;;;;;;8.65;6.92;;;;;;;22.71;100.00;99033.07;4167057;84;28439;-88
2021/09/12 18:39:42;;;;;;;9.80;7.25;;;;;;;22.46;100.00;99034.48;4169527;84;28458;-82
2021/09/12 18:45:45;;;;;;;10.20;6.85;;;;;;;22.50;100.00;99039.63;4158369;84;28554;-81
2021/09/12 18:51:47;;;;;;;11.35;7.12;;;;;;;22.38;100.00;99038.20;4140145;84;28450;-82
2021/09/12 18:57:48;;;;;;;17.17;7.50;;;;;;;22.21;100.00;99042.98;4089503;86;28472;-83
2021/09/12 19:03:53;;;;;;;14.75;7.45;;;;;;;22.08;100.00;99039.73;4130148;86;28516;-83
2021/09/12 19:09:54;;;;;;;13.85;7.47;;;;;;;22.19;100.00;99050.70;4043368;88;28562;-84
2021/09/12 19:15:56;;;;;;;11.25;7.12;;;;;;;22.09;100.00;99058.59;4184405;84;28485;-88
2021/09/12 19:21:59;;;;;;;13.45;9.83;;;;;;;22.10;100.00;99071.16;4082369;85;28493;-82
2021/09/12 19:28:00;;;;;;;12.07;8.15;;;;;;;21.98;100.00;99074.41;4121509;85;28455;-85
2021/09/12 19:34:02;;;;;;;9.65;7.08;;;;;;;21.95;100.00;99068.20;4090041;86;28525;-84
2021/09/12 19:40:08;;;;;;;12.43;7.62;;;;;;;21.85;100.00;99069.78;4066734;86;28535;-83
2021/09/12 19:46:10;;;;;;;10.05;8.45;;;;;;;21.86;100.00;99078.23;4104897;85;28466;-83
2021/09/12 19:52:16;;;;;;;10.15;7.67;;;;;;;21.66;100.00;99078.05;4107421;85;28428;-84
2021/09/12 19:58:17;;;;;;;11.35;8.40;;;;;;;21.59;100.00;99075.73;4145682;85;28511;-84
2021/09/12 20:04:18;;;;;;;14.58;8.78;;;;;;;21.71;100.00;99078.00;4118354;85;28457;-83
2021/09/12 20:10:20;;;;;;;12.43;8.30;;;;;;;21.70;100.00;99072.27;4131295;85;28485;-85
2021/09/12 20:16:21;;;;;;;12.35;9.35;;;;;;;21.74;100.00;99080.11;4135352;85;28434;-82
2021/09/12 20:22:22;;;;;;;13.08;9.10;;;;;;;21.64;100.00;99077.01;4104242;86;28473;-83
2021/09/12 20:28:23;;;;;;;12.78;10.23;;;;;;;21.59;100.00;99086.67;4117491;85;28508;-85
2021/09/12 20:34:27;;;;;;;13.58;10.20;;;;;;;21.68;100.00;99086.25;4125395;85;28518;-82
2021/09/12 20:40:28;;;;;;;13.00;9.10;;;;;;;21.75;100.00;99085.04;4078425;85;28479;-81
2021/09/12 20:46:30;;;;;;;12.82;8.78;;;;;;;21.58;100.00;99086.42;4130487;85;28489;-83
2021/09/12 20:52:31;;;;;;;13.15;8.90;;;;;;;21.54;100.00;99087.58;4136205;84;28461;-81
2021/09/12 20:58:32;;;;;;;12.07;8.03;;;;;;;21.63;100.00;99084.14;4142609;84;28486;-82
2021/09/12 21:04:40;;;;;;;13.43;8.25;;;;;;;21.71;100.00;99087.03;4123746;84;28533;-85
2021/09/12 21:10:41;;;;;;;11.28;8.73;;;;;;;21.45;100.00;99082.02;4129444;85;28494;-88
2021/09/12 21:16:42;;;;;;;13.18;8.88;;;;;;;21.33;100.00;99082.25;4071598;85;28433;-85
2021/09/12 21:22:44;;;;;;;11.97;8.68;;;;;;;21.24;100.00;99077.50;4122152;85;28557;-86
2021/09/12 21:28:45;;;;;;;13.22;8.60;;;;;;;21.24;100.00;99078.04;4137504;85;28450;-86
2021/09/12 21:34:47;;;;;;;14.15;9.78;;;;;;;21.17;100.00;99078.44;4073832;85;28483;-86
2021/09/12 21:40:48;;;;;;;12.47;9.13;;;;;;;21.23;100.00;99083.26;4120057;85;28526;-85
2021/09/12 21:46:49;;;;;;;11.48;8.98;;;;;;;21.07;100.00;99083.52;4054682;86;28496;-86
2021/09/12 21:52:51;;;;;;;12.65;8.68;;;;;;;21.13;100.00;99086.42;4049976;86;28480;-90
2021/09/12 21:58:53;;;;;;;13.15;8.58;;;;;;;21.23;100.00;99097.72;4059072;86;28487;-88
2021/09/12 22:04:54;;;;;;;12.50;9.40;;;;;;;21.17;100.00;99094.27;4050514;86;28478;-84
2021/09/12 22:10:56;;;;;;;14.78;9.10;;;;;;;21.13;100.00;99094.63;4045935;87;28477;-84
2021/09/12 22:16:57;;;;;;;10.13;8.43;;;;;;;21.15;100.00;99095.70;4055733;86;28456;-85
2021/09/12 22:22:59;;;;;;;12.90;9.60;;;;;;;21.16;100.00;99089.91;4031550;87;28581;-85
2021/09/12 22:29:01;;;;;;;17.00;10.05;;;;;;;21.00;100.00;99086.64;4039764;86;28488;-85
2021/09/12 22:35:06;;;;;;;13.40;9.48;;;;;;;20.94;100.00;99084.30;4045357;87;28515;-83
2021/09/12 22:41:08;;;;;;;14.80;11.38;;;;;;;20.95;100.00;99081.81;4034059;86;28591;-84
2021/09/12 22:47:13;;;;;;;16.07;10.95;;;;;;;21.03;100.00;99083.88;4049943;86;28496;-84
2021/09/12 22:53:13;;;;;;;15.38;10.72;;;;;;;21.05;100.00;99084.95;3970705;90;28586;-84
2021/09/12 22:59:16;;;;;;;15.32;11.50;;;;;;;20.97;100.00;99078.22;4087694;86;28501;-84
2021/09/12 23:05:17;;;;;;;15.48;11.75;;;;;;;20.98;100.00;99083.41;4012486;88;28449;-84
2021/09/12 23:11:21;;;;;;;13.88;10.80;;;;;;;20.89;100.00;99081.92;4027046;87;28477;-84
2021/09/12 23:17:23;;;;;;;16.20;11.97;;;;;;;20.78;100.00;99083.71;3974579;88;28489;-84
2021/09/12 23:23:24;;;;;;;16.05;11.45;;;;;;;20.76;100.00;99082.63;4042227;85;28464;-82
2021/09/12 23:29:25;;;;;;;15.98;12.45;;;;;;;20.75;100.00;99091.40;4084901;85;28493;-83
2021/09/12 23:35:27;;;;;;;17.48;12.65;;;;;;;20.66;100.00;99089.62;4085243;86;28510;-84
2021/09/12 23:41:28;;;;;;;16.75;12.03;;;;;;;20.84;100.00;99086.66;4072905;86;28597;-84
2021/09/12 23:47:30;;;;;;;14.90;12.15;;;;;;;20.87;100.00;99088.21;4063148;85;28509;-84
2021/09/12 23:53:31;;;;;;;18.40;11.83;;;;;;;20.97;100.00;99084.52;4116884;86;28461;-85
2021/09/12 23:59:33;;;;;;;17.42;12.35;;;;;;;21.01;100.00;99084.16;4106918;87;28485;-85
